Ana Sayfa
METAR-TAF:

METAR-TAF

Havaalanları :

Tena, Ekvador

Enlem: 01-03-35S, Boylam: 77-35-00W, yükseklik: 376 m

Güncel hava durumu gözlemi

Rapor saat 13:00 UTC de 1 saat ve 9 dakika önce yapıldı.
Rüzgar batıdan 1 kt
Sıcaklık 24°C
Nem 94%
Basınç 1013 hPa
Görüş mesafesi 10 km veya daha fazla
4000 ft yükseklikte parçalı bulutlu
10000 ft yükseklikte parçalı çok bulutlu

METAR: SEJD 291300Z 28001KT 9999 SCT040 BKN100 24/23 Q1013 RMK A2992

Saat: 09:09 (14:09 UTC)


TAF: eksik

4.000'den fazla havaalanı için hava durumu gözlemleri ve tahminleri (METAR ve TAF raporları).

Kullanılabilir istasyonlar harita üzerinde sarı ve kırmızı noktalarla gösterilir.

İstasyonun adını görmek için fareyi noktanın üzerinde gezdirin.

Sonrasında hava gözlem ve tahminlerini görmek için tıklayın.

Haritayı değiştirmek için: yaklaştırmak için siyah artı işaretli yeşil düğmeye ve uzaklaştırmak için de eksi işaretli düğmeye hızla tıklayın; bitişik haritalar için yeşil okları kullanın.


METAR-TAF: